Agness, Oregon
Current Conditions -  °F | °C
As of 11:56 PM on Monday 20 Oct 2014 (Local Time) from KBOK Reporting Station
Haze Haze  
Wind Chill: 55°   Ceiling: 1600
Heat Index: 55°   Visibility: 6mi
Dew Point: 53°   Wind: 5mph
Humidity: 93%   Direction: 120°ESE
Pressure: 30"   Gusts: NA
Location:  42.56°N, 124.07°W
Report Text: KBOK 210656Z AUTO 12004KT 6SM BR BKN016 OVC023 13/12 A3000 RMK AO2 T01270116 401610116 SLP159
Loading
Personal Weather Stations






























Interactive Weather Map
Tropical Storm Tracking
New forecast layout! Learn more

10-Day Weather Forecast

Advertisements
Track Severe Weather on mobile